createdAt,value
2018-12-29T00:02:19.489Z,2.50
2018-12-29T00:04:46.488Z,3.80
2018-12-29T00:07:13.480Z,6.33
2018-12-29T00:09:40.631Z,6.27
2018-12-29T00:12:07.636Z,8.13
2018-12-29T00:14:35.396Z,0.20
2018-12-29T00:17:02.391Z,10.47
2018-12-29T00:19:29.438Z,1.87
2018-12-29T00:22:02.072Z,8.73
2018-12-29T00:24:29.885Z,10.40
2018-12-29T00:26:56.940Z,9.87
2018-12-29T00:29:23.982Z,11.07
2018-12-29T00:31:51.133Z,14.33
2018-12-29T00:34:18.286Z,6.87
2018-12-29T00:36:47.081Z,9.47
2018-12-29T00:39:14.019Z,7.63
2018-12-29T00:41:41.072Z,19.47
2018-12-29T00:44:08.116Z,10.63
2018-12-29T00:46:36.088Z,10.00
2018-12-29T00:49:03.340Z,5.27
2018-12-29T00:51:30.492Z,3.27
2018-12-29T00:53:57.538Z,7.20
2018-12-29T00:56:24.592Z,9.93
2018-12-29T00:58:51.636Z,4.23
2018-12-29T01:01:18.687Z,3.03
2018-12-29T01:03:45.738Z,8.43
2018-12-29T01:06:13.397Z,5.63
2018-12-29T01:08:40.444Z,13.83
2018-12-29T01:11:07.499Z,1.37
2018-12-29T01:13:35.821Z,4.70
2018-12-29T01:16:03.335Z,0.97
2018-12-29T01:18:30.379Z,3.63
2018-12-29T01:20:57.427Z,4.87
2018-12-29T01:23:24.481Z,16.87
2018-12-29T01:25:51.525Z,7.77
2018-12-29T01:28:18.574Z,9.47
2018-12-29T01:30:45.573Z,14.53
2018-12-29T01:33:12.568Z,11.93
2018-12-29T01:35:39.621Z,8.40
2018-12-29T01:38:06.664Z,13.97
2018-12-29T01:40:33.712Z,11.07
2018-12-29T01:43:00.767Z,5.73
2018-12-29T01:45:27.810Z,5.63
2018-12-29T01:47:54.859Z,1.53
2018-12-29T01:50:21.913Z,14.80
2018-12-29T01:52:48.955Z,5.17
2018-12-29T01:55:16.008Z,1.53
2018-12-29T01:57:43.057Z,5.60
2018-12-29T02:00:10.101Z,6.50
2018-12-29T02:02:37.150Z,9.87
2018-12-29T02:05:05.223Z,9.50
2018-12-29T02:07:32.274Z,10.13
2018-12-29T02:09:59.318Z,5.17
2018-12-29T02:12:26.320Z,17.60
2018-12-29T02:14:53.313Z,8.13
2018-12-29T02:17:20.362Z,13.80
2018-12-29T02:19:47.416Z,9.43
2018-12-29T02:22:14.488Z,11.60
2018-12-29T02:24:41.506Z,18.80
2018-12-29T02:27:08.563Z,16.03
2018-12-29T02:29:35.604Z,12.43
2018-12-29T02:32:02.652Z,13.83
2018-12-29T02:34:29.707Z,11.47
2018-12-29T02:36:57.875Z,6.30
2018-12-29T02:39:24.941Z,14.50
2018-12-29T02:41:51.972Z,11.53
2018-12-29T02:44:19.021Z,22.63
2018-12-29T02:46:46.788Z,10.50
2018-12-29T02:49:14.251Z,9.20
2018-12-29T02:51:41.299Z,4.60
2018-12-29T02:54:08.342Z,6.23
2018-12-29T02:56:35.394Z,3.57
2018-12-29T02:59:02.446Z,9.77
2018-12-29T03:01:29.505Z,11.70
2018-12-29T03:03:56.536Z,10.80
2018-12-29T03:06:23.595Z,12.03
2018-12-29T03:08:50.633Z,13.47
2018-12-29T03:11:17.678Z,16.07
2018-12-29T03:13:44.735Z,9.13
2018-12-29T03:16:11.775Z,18.30
2018-12-29T03:18:38.825Z,11.27
2018-12-29T03:21:24.891Z,10.97
2018-12-29T03:24:11.148Z,15.50
2018-12-29T03:26:59.453Z,12.10
2018-12-29T03:29:45.145Z,10.43
2018-12-29T03:32:13.226Z,5.90
2018-12-29T03:34:40.276Z,13.37
2018-12-29T03:37:07.321Z,10.43
2018-12-29T03:39:34.584Z,10.30
2018-12-29T03:42:01.621Z,15.97
2018-12-29T03:44:28.669Z,13.50
2018-12-29T03:46:56.129Z,12.67
2018-12-29T03:49:23.182Z,14.20
2018-12-29T03:51:51.460Z,6.03
2018-12-29T03:54:18.502Z,11.03
2018-12-29T03:56:45.560Z,10.73
2018-12-29T03:59:12.598Z,11.87
2018-12-29T04:01:39.650Z,10.70
2018-12-29T04:04:06.701Z,12.97
2018-12-29T04:06:33.745Z,3.83
2018-12-29T04:09:06.732Z,6.87
2018-12-29T04:11:33.781Z,0.30
2018-12-29T04:14:00.733Z,1.60
2018-12-29T04:16:27.778Z,1.30
2018-12-29T04:18:54.828Z,9.73
2018-12-29T04:21:21.874Z,5.90
2018-12-29T04:23:48.920Z,1.37
2018-12-29T04:26:15.974Z,4.60
2018-12-29T04:28:43.017Z,10.00
2018-12-29T04:31:10.065Z,7.03
2018-12-29T04:33:37.120Z,11.37
2018-12-29T04:36:04.162Z,10.13
2018-12-29T04:38:31.825Z,8.13
2018-12-29T04:40:58.880Z,10.60
2018-12-29T04:43:25.922Z,10.40
2018-12-29T04:45:52.971Z,10.70
2018-12-29T04:48:20.027Z,9.07
2018-12-29T04:50:47.072Z,9.57
2018-12-29T04:53:14.116Z,11.73
2018-12-29T04:55:41.168Z,10.47
2018-12-29T04:58:09.032Z,13.73
2018-12-29T05:00:36.085Z,8.00
2018-12-29T05:03:23.213Z,10.23
2018-12-29T05:06:10.305Z,10.13
2018-12-29T05:08:37.474Z,9.90
2018-12-29T05:11:04.519Z,3.57
2018-12-29T05:13:31.982Z,11.47
2018-12-29T05:15:59.027Z,12.33
2018-12-29T05:18:26.083Z,12.83
2018-12-29T05:20:53.376Z,12.30
2018-12-29T05:23:20.379Z,7.67
2018-12-29T05:25:47.321Z,7.73
2018-12-29T05:28:14.777Z,13.17
2018-12-29T05:30:41.832Z,4.17
2018-12-29T05:33:08.875Z,5.87
2018-12-29T05:36:01.009Z,2.57
2018-12-29T05:38:46.864Z,10.47
2018-12-29T05:41:15.028Z,14.90
2018-12-29T05:43:42.334Z,11.60
2018-12-29T05:46:09.340Z,13.33
2018-12-29T05:48:36.326Z,11.57
2018-12-29T05:51:03.786Z,4.53
2018-12-29T05:53:30.837Z,10.77
2018-12-29T05:55:57.885Z,9.77
2018-12-29T05:58:24.826Z,12.53
2018-12-29T06:00:51.821Z,16.67
2018-12-29T06:03:19.957Z,13.97
2018-12-29T06:05:47.408Z,14.40
2018-12-29T06:08:14.454Z,16.47
2018-12-29T06:10:41.492Z,14.30
2018-12-29T06:13:08.556Z,15.00
2018-12-29T06:15:35.599Z,6.77
2018-12-29T06:18:02.750Z,16.63
2018-12-29T06:20:29.746Z,14.80
2018-12-29T06:22:56.743Z,16.97
2018-12-29T06:25:23.791Z,16.50
2018-12-29T06:27:50.785Z,14.27
2018-12-29T06:30:19.531Z,12.60
2018-12-29T06:32:46.574Z,12.67
2018-12-29T06:35:13.625Z,27.03
2018-12-29T06:37:40.678Z,13.80
2018-12-29T06:40:10.195Z,19.70
2018-12-29T06:42:37.177Z,15.37
2018-12-29T06:45:04.538Z,20.83
2018-12-29T06:47:31.527Z,14.23
2018-12-29T06:49:58.581Z,18.13
2018-12-29T06:52:25.623Z,46.80
2018-12-29T06:54:54.110Z,14.07
2018-12-29T06:57:22.895Z,14.83
2018-12-29T06:59:49.948Z,15.17
2018-12-29T07:02:16.993Z,14.87
2018-12-29T07:04:44.041Z,16.07
2018-12-29T07:07:11.093Z,13.60
2018-12-29T07:09:38.138Z,7.03
2018-12-29T07:12:05.187Z,11.90
2018-12-29T07:14:32.240Z,13.77
2018-12-29T07:17:13.579Z,14.13
2018-12-29T07:19:40.516Z,7.70
2018-12-29T07:22:07.463Z,9.63
2018-12-29T07:24:34.455Z,12.57
2018-12-29T07:27:01.511Z,16.23
2018-12-29T07:29:28.553Z,12.67
2018-12-29T07:31:55.563Z,25.30
2018-12-29T07:34:22.655Z,13.57
2018-12-29T07:36:49.652Z,13.63
2018-12-29T07:39:16.649Z,12.63
2018-12-29T07:41:43.693Z,9.43
2018-12-29T07:44:10.740Z,14.70
2018-12-29T07:46:37.794Z,15.43
2018-12-29T07:49:06.066Z,13.40
2018-12-29T07:51:33.113Z,13.10
2018-12-29T07:54:00.169Z,4.33
2018-12-29T07:56:27.211Z,21.00
2018-12-29T07:58:54.259Z,20.70
2018-12-29T08:01:21.314Z,14.17
2018-12-29T08:03:48.358Z,10.97
2018-12-29T08:06:15.457Z,11.97
2018-12-29T08:08:42.862Z,13.00
2018-12-29T08:11:10.474Z,13.60
2018-12-29T08:13:37.472Z,13.10
2018-12-29T08:16:04.526Z,11.37
2018-12-29T08:18:31.568Z,13.47
2018-12-29T08:20:58.616Z,10.33
2018-12-29T08:23:25.669Z,10.27
2018-12-29T08:25:52.611Z,9.60
2018-12-29T08:28:19.664Z,14.43
2018-12-29T08:30:46.709Z,6.80
2018-12-29T08:33:13.755Z,18.20
2018-12-29T08:35:43.793Z,17.20
2018-12-29T08:38:11.651Z,5.53
2018-12-29T08:40:38.694Z,17.87
2018-12-29T08:43:05.741Z,16.30
2018-12-29T08:45:33.151Z,10.93
2018-12-29T08:48:00.146Z,13.70
2018-12-29T08:50:27.191Z,14.67
2018-12-29T08:53:11.619Z,15.50
2018-12-29T08:55:38.602Z,19.93
2018-12-29T08:58:05.643Z,2.20
2018-12-29T09:00:32.691Z,22.83
2018-12-29T09:02:59.945Z,5.73
2018-12-29T09:05:26.992Z,12.00
2018-12-29T09:07:54.046Z,13.63
2018-12-29T09:10:21.553Z,12.73
2018-12-29T09:12:48.548Z,10.93
2018-12-29T09:15:15.553Z,14.57
2018-12-29T09:17:43.264Z,19.03
2018-12-29T09:20:10.313Z,17.97
2018-12-29T09:22:37.355Z,15.50
2018-12-29T09:25:04.409Z,13.93
2018-12-29T09:27:31.452Z,20.47
2018-12-29T09:29:58.502Z,18.40
2018-12-29T09:32:25.598Z,20.33
2018-12-29T09:34:52.598Z,14.80
2018-12-29T09:37:19.646Z,13.27
2018-12-29T09:39:46.593Z,17.13
2018-12-29T09:42:13.640Z,14.27
2018-12-29T09:44:41.002Z,17.73
2018-12-29T09:47:08.046Z,24.70
2018-12-29T09:49:34.996Z,23.17
2018-12-29T09:52:02.041Z,21.47
2018-12-29T09:54:29.089Z,20.57
2018-12-29T09:56:56.035Z,25.47
2018-12-29T09:59:23.081Z,24.37
2018-12-29T10:01:50.138Z,1.93
2018-12-29T10:04:17.594Z,3.47
2018-12-29T10:06:44.637Z,26.30
2018-12-29T10:09:11.687Z,17.73
2018-12-29T10:11:40.476Z,19.43
2018-12-29T10:14:07.627Z,11.07
2018-12-29T10:16:34.675Z,14.93
2018-12-29T10:19:01.729Z,15.73
2018-12-29T10:21:28.772Z,23.13
2018-12-29T10:23:55.822Z,19.93
2018-12-29T10:26:22.878Z,22.03
2018-12-29T10:28:49.917Z,23.30
2018-12-29T10:31:16.970Z,18.17
2018-12-29T10:33:44.020Z,31.53
2018-12-29T10:36:11.064Z,27.87
2018-12-29T10:38:38.628Z,30.27
2018-12-29T10:41:05.672Z,29.37
2018-12-29T10:43:32.721Z,32.57
2018-12-29T10:46:00.138Z,32.30
2018-12-29T10:48:27.232Z,34.10
2018-12-29T10:50:54.276Z,30.63
2018-12-29T10:53:21.940Z,27.70
2018-12-29T10:55:48.992Z,30.73
2018-12-29T10:58:16.650Z,31.97
2018-12-29T11:00:43.700Z,30.53
2018-12-29T11:03:10.752Z,31.17
2018-12-29T11:05:37.800Z,31.53
2018-12-29T11:08:04.944Z,31.97
2018-12-29T11:10:31.999Z,30.97
2018-12-29T11:12:59.050Z,31.27
2018-12-29T11:15:26.098Z,32.37
2018-12-29T11:17:53.141Z,27.03
2018-12-29T11:20:21.828Z,28.07
2018-12-29T11:22:48.882Z,30.47
2018-12-29T11:25:15.927Z,30.97
2018-12-29T11:27:42.973Z,31.97
2018-12-29T11:30:10.028Z,30.63
2018-12-29T11:32:38.314Z,35.23
2018-12-29T11:35:07.810Z,29.27
2018-12-29T11:37:34.976Z,28.73
2018-12-29T11:40:02.021Z,27.97
2018-12-29T11:42:29.058Z,28.57
2018-12-29T11:44:56.010Z,28.27
2018-12-29T11:47:23.048Z,29.27
2018-12-29T11:49:50.096Z,30.20
2018-12-29T11:52:17.462Z,28.33
2018-12-29T11:54:44.501Z,30.07
2018-12-29T11:57:11.550Z,29.17
2018-12-29T11:59:42.948Z,30.60
2018-12-29T12:02:10.669Z,30.03
2018-12-29T12:04:37.715Z,31.03
2018-12-29T12:07:06.605Z,32.53
2018-12-29T12:09:33.965Z,32.83
2018-12-29T12:12:01.009Z,33.37
2018-12-29T12:14:28.057Z,34.10
2018-12-29T12:16:55.521Z,31.00
2018-12-29T12:19:22.666Z,34.17
2018-12-29T12:21:49.719Z,31.90
2018-12-29T12:24:17.178Z,32.20
2018-12-29T12:26:44.222Z,32.67
2018-12-29T12:29:11.270Z,36.33
2018-12-29T12:31:38.926Z,35.27
2018-12-29T12:34:05.982Z,39.20
2018-12-29T12:36:35.237Z,37.03
2018-12-29T12:39:02.849Z,40.73
2018-12-29T12:41:29.911Z,40.43
2018-12-29T12:43:56.996Z,38.37
2018-12-29T12:46:26.184Z,36.43
2018-12-29T12:48:53.373Z,35.27
2018-12-29T12:51:20.446Z,37.00
2018-12-29T12:53:47.490Z,32.17
2018-12-29T12:56:14.538Z,31.63
2018-12-29T12:58:41.591Z,35.33
2018-12-29T13:01:08.743Z,32.83
2018-12-29T13:03:35.736Z,32.37
2018-12-29T13:06:03.142Z,30.50
2018-12-29T13:23:04.255Z,33.90
2018-12-29T13:25:31.298Z,34.03
2018-12-29T13:27:58.218Z,33.13
2018-12-29T13:30:26.840Z,34.10
2018-12-29T13:32:53.883Z,31.47
2018-12-29T13:35:20.934Z,31.87
2018-12-29T13:37:47.976Z,29.77
2018-12-29T13:40:15.023Z,30.60
2018-12-29T13:42:42.077Z,30.87
2018-12-29T13:45:09.120Z,32.63
2018-12-29T13:47:36.168Z,34.27
2018-12-29T13:50:03.224Z,37.17
2018-12-29T13:52:30.267Z,35.77
2018-12-29T13:54:57.314Z,35.70
2018-12-29T13:57:24.370Z,34.67
2018-12-29T13:59:51.410Z,31.60
2018-12-29T14:02:18.458Z,32.70
2018-12-29T14:04:45.512Z,33.27
2018-12-29T14:07:12.627Z,31.63
2018-12-29T14:09:39.605Z,30.90
2018-12-29T14:12:06.659Z,32.47
2018-12-29T14:14:33.702Z,31.67
2018-12-29T14:17:00.751Z,30.30
2018-12-29T14:19:27.900Z,32.87
2018-12-29T14:21:55.155Z,29.97
2018-12-29T14:24:22.204Z,35.47
2018-12-29T14:26:49.825Z,35.10
2018-12-29T14:29:17.021Z,32.60
2018-12-29T14:31:44.066Z,36.57
2018-12-29T14:34:11.098Z,32.27
2018-12-29T14:36:38.130Z,32.37
2018-12-29T14:39:06.440Z,36.90
2018-12-29T14:41:33.899Z,31.60
2018-12-29T14:44:00.900Z,34.43
2018-12-29T14:46:27.892Z,32.40
2018-12-29T14:48:54.940Z,33.10
2018-12-29T14:51:21.997Z,33.50
2018-12-29T14:53:49.038Z,34.80
2018-12-29T14:56:16.087Z,33.37
2018-12-29T14:58:43.450Z,32.80
2018-12-29T15:01:12.311Z,33.67
2018-12-29T15:03:41.226Z,32.03
2018-12-29T15:06:08.281Z,34.33
2018-12-29T15:08:35.324Z,34.20
2018-12-29T15:11:02.382Z,34.90
2018-12-29T15:13:29.427Z,35.03
2018-12-29T15:15:56.470Z,35.03
2018-12-29T15:18:23.617Z,31.83
2018-12-29T15:20:50.977Z,32.20
2018-12-29T15:23:18.229Z,33.33
2018-12-29T15:25:45.795Z,32.63
2018-12-29T15:28:13.030Z,34.87
2018-12-29T15:30:39.989Z,36.00
2018-12-29T15:33:07.039Z,38.60
2018-12-29T15:35:34.092Z,35.40
2018-12-29T15:38:01.135Z,34.00
2018-12-29T15:40:28.185Z,33.93
2018-12-29T15:42:55.238Z,31.93
2018-12-29T15:45:22.280Z,31.67
2018-12-29T15:47:50.661Z,33.67
2018-12-29T15:50:17.719Z,31.67
2018-12-29T15:52:45.990Z,33.67
2018-12-29T15:55:13.034Z,35.20
2018-12-29T15:57:40.221Z,37.97
2018-12-29T16:00:07.251Z,37.73
2018-12-29T16:02:34.370Z,36.80
2018-12-29T16:05:01.300Z,33.13
2018-12-29T16:07:28.283Z,29.30
2018-12-29T16:09:55.993Z,53.50
2018-12-29T16:12:23.093Z,51.40
2018-12-29T16:14:51.050Z,90.73
2018-12-29T16:17:18.321Z,127.07
2018-12-29T16:19:47.111Z,131.70
2018-12-29T16:22:14.054Z,109.63
2018-12-29T16:24:41.137Z,181.20
2018-12-29T16:27:08.880Z,60.47
2018-12-29T16:29:36.529Z,164.60
2018-12-29T16:32:04.498Z,162.70
2018-12-29T16:34:31.955Z,72.30
2018-12-29T16:37:02.336Z,136.53
2018-12-29T16:39:29.431Z,93.03
2018-12-29T16:41:56.481Z,84.50
2018-12-29T16:44:23.534Z,78.57
2018-12-29T16:46:50.693Z,106.47
2018-12-29T16:49:17.733Z,36.47
2018-12-29T16:51:44.778Z,62.20
2018-12-29T16:54:11.831Z,47.77
2018-12-29T16:56:38.983Z,45.27
2018-12-29T16:59:06.027Z,53.20
2018-12-29T17:01:33.074Z,29.07
2018-12-29T17:04:00.194Z,38.13
2018-12-29T17:06:39.149Z,45.77
2018-12-29T17:09:11.749Z,28.73
2018-12-29T17:11:58.290Z,27.83
2018-12-29T17:14:43.024Z,26.37
2018-12-29T17:19:49.102Z,18.30
2018-12-29T17:22:16.233Z,26.53
2018-12-29T17:24:43.277Z,18.90
2018-12-29T17:27:10.324Z,20.00
2018-12-29T17:29:37.378Z,26.83
2018-12-29T17:32:22.837Z,24.17
2018-12-29T17:35:04.580Z,23.17
2018-12-29T17:37:31.595Z,20.80
2018-12-29T17:39:58.546Z,18.70
2018-12-29T17:42:25.697Z,21.10
2018-12-29T17:44:52.741Z,12.37
2018-12-29T17:47:19.789Z,16.93
2018-12-29T17:49:46.842Z,23.13
2018-12-29T17:52:13.888Z,18.53
2018-12-29T17:54:40.934Z,30.50
2018-12-29T17:57:07.988Z,28.73
2018-12-29T17:59:35.033Z,31.10
2018-12-29T18:02:02.038Z,27.17
2018-12-29T18:04:29.134Z,38.10
2018-12-29T18:06:56.930Z,33.10
2018-12-29T18:09:23.943Z,27.17
2018-12-29T18:11:51.094Z,26.30
2018-12-29T18:14:18.097Z,26.37
2018-12-29T18:16:45.863Z,29.53
2018-12-29T18:19:12.966Z,29.93
2018-12-29T18:21:40.006Z,31.87
2018-12-29T18:24:07.054Z,49.90
2018-12-29T18:26:34.108Z,55.40
2018-12-29T18:29:01.257Z,36.13
2018-12-29T18:31:28.408Z,60.03
2018-12-29T18:33:55.453Z,39.20
2018-12-29T18:36:22.501Z,33.23
2018-12-29T18:39:10.779Z,11.40
2018-12-29T18:41:58.818Z,29.57
2018-12-29T18:44:46.104Z,30.77
2018-12-29T18:47:30.960Z,31.70
2018-12-29T18:50:16.478Z,27.40
2018-12-29T18:52:43.507Z,30.00
2018-12-29T18:55:10.658Z,25.60
2018-12-29T18:57:37.707Z,29.63
2018-12-29T19:00:06.498Z,6.57
2018-12-29T19:02:34.473Z,43.60
2018-12-29T19:05:01.519Z,2.73
2018-12-29T19:07:29.348Z,12.10
2018-12-29T19:09:56.435Z,31.13
2018-12-29T19:12:23.590Z,25.17
2018-12-29T19:14:50.797Z,30.17
2018-12-29T19:17:17.882Z,24.53
2018-12-29T19:19:46.443Z,31.37
2018-12-29T19:22:11.979Z,22.90
2018-12-29T19:24:39.034Z,26.13
2018-12-29T19:27:06.492Z,24.90
2018-12-29T19:29:33.535Z,16.67
2018-12-29T19:32:00.789Z,173.33
2018-12-29T19:34:28.038Z,29.83
2018-12-29T19:37:16.785Z,30.30
2018-12-29T19:39:45.493Z,16.97
2018-12-29T19:42:12.533Z,18.77
2018-12-29T19:44:39.588Z,10.93
2018-12-29T19:47:07.812Z,22.90
2018-12-29T19:49:35.010Z,44.63
2018-12-29T19:52:03.420Z,35.30
2018-12-29T19:54:31.361Z,28.67
2018-12-29T19:56:58.377Z,39.37
2018-12-29T19:59:25.442Z,40.57
2018-12-29T20:01:52.459Z,31.43
2018-12-29T20:04:19.564Z,24.77
2018-12-29T20:06:46.603Z,28.30
2018-12-29T20:09:14.169Z,46.20
2018-12-29T20:11:41.520Z,5.33
2018-12-29T20:14:08.670Z,41.47
2018-12-29T20:16:35.728Z,71.73
2018-12-29T20:19:02.663Z,49.10
2018-12-29T20:21:29.714Z,47.57
2018-12-29T20:23:56.709Z,34.20
2018-12-29T20:26:23.708Z,42.73
2018-12-29T20:28:50.963Z,23.03
2018-12-29T20:31:17.960Z,32.90
2018-12-29T20:34:02.139Z,35.70
2018-12-29T20:36:46.747Z,41.90
2018-12-29T20:39:13.772Z,27.30
2018-12-29T20:41:40.814Z,38.10
2018-12-29T20:44:07.965Z,35.80
2018-12-29T20:46:35.016Z,8.17
2018-12-29T20:49:03.701Z,44.70
2018-12-29T20:51:30.854Z,50.30
2018-12-29T20:53:57.907Z,53.17
2018-12-29T20:56:24.948Z,41.67
2018-12-29T20:58:51.998Z,52.57
2018-12-29T21:01:19.054Z,50.60
2018-12-29T21:03:46.145Z,45.10
2018-12-29T21:06:13.601Z,47.23
2018-12-29T21:08:40.601Z,53.67
2018-12-29T21:11:07.655Z,54.80
2018-12-29T21:13:34.699Z,63.87
2018-12-29T21:16:01.750Z,75.97
2018-12-29T21:18:28.740Z,61.60
2018-12-29T21:20:55.697Z,54.97
2018-12-29T21:23:22.795Z,53.70
2018-12-29T21:25:49.838Z,54.50
2018-12-29T21:28:17.192Z,43.30
2018-12-29T21:30:44.247Z,43.90
2018-12-29T21:33:11.289Z,38.20
2018-12-29T21:35:38.464Z,33.30
2018-12-29T21:38:06.105Z,25.37
2018-12-29T21:40:33.160Z,14.90
2018-12-29T21:43:01.741Z,38.77
2018-12-29T21:45:29.195Z,35.80
2018-12-29T21:47:56.243Z,53.13
2018-12-29T21:50:25.783Z,35.60
2018-12-29T21:52:50.856Z,43.70
2018-12-29T21:55:17.907Z,53.07
2018-12-29T21:57:44.951Z,49.40
2018-12-29T22:00:12.001Z,46.87
2018-12-29T22:02:39.056Z,43.93
2018-12-29T22:05:06.204Z,47.20
2018-12-29T22:07:37.044Z,30.47
2018-12-29T22:10:04.194Z,36.57
2018-12-29T22:12:31.347Z,39.47
2018-12-29T22:14:58.386Z,14.70
2018-12-29T22:17:26.357Z,8.13
2018-12-29T22:19:53.612Z,37.37
2018-12-29T22:22:20.760Z,21.53
2018-12-29T22:24:47.808Z,43.37
2018-12-29T22:27:14.862Z,42.57
2018-12-29T22:29:41.856Z,31.33
2018-12-29T22:32:08.954Z,40.23
2018-12-29T22:34:36.009Z,38.17
2018-12-29T22:37:04.893Z,41.73
2018-12-29T22:39:34.399Z,45.77
2018-12-29T22:42:03.497Z,48.50
2018-12-29T22:44:30.954Z,44.47
2018-12-29T22:46:58.003Z,38.10
2018-12-29T22:49:25.056Z,25.97
2018-12-29T22:51:52.613Z,30.60
2018-12-29T22:54:19.665Z,29.77
2018-12-29T22:56:46.709Z,26.17
2018-12-29T22:59:13.757Z,33.67
2018-12-29T23:01:40.812Z,35.90
2018-12-29T23:04:07.871Z,34.83
2018-12-29T23:06:36.649Z,35.73
2018-12-29T23:09:03.898Z,39.33
2018-12-29T23:11:30.950Z,41.47
2018-12-29T23:13:58.004Z,50.00
2018-12-29T23:16:25.041Z,39.90
2018-12-29T23:18:52.295Z,33.63
2018-12-29T23:21:19.359Z,38.80
2018-12-29T23:23:46.398Z,38.00
2018-12-29T23:26:14.056Z,38.43
2018-12-29T23:28:41.106Z,38.87
2018-12-29T23:31:08.159Z,32.43
2018-12-29T23:33:36.848Z,39.37
2018-12-29T23:36:03.887Z,35.90
2018-12-29T23:38:30.939Z,33.93
2018-12-29T23:40:59.650Z,45.97
2018-12-29T23:43:26.677Z,41.50
2018-12-29T23:45:53.721Z,36.33
2018-12-29T23:48:22.409Z,37.57
2018-12-29T23:50:49.457Z,35.90
2018-12-29T23:53:16.668Z,33.20
2018-12-29T23:55:43.663Z,33.63
2018-12-29T23:58:10.715Z,38.30
